Trois-Ponts, Belgium
Current Conditions -  °F | °C
As of 1:25 PM on Monday 24 Nov 2014 (Local Time) from EBLB Reporting Station
Scattered Clouds Scattered Clouds  
Wind Chill: 41°   Ceiling: Unl
Heat Index: 45°   Visibility: 6mi
Dew Point: 36°   Wind: 7mph
Humidity: 71%   Direction: 80°E
Pressure: 30.24"   Gusts: NA
Location:  50.37°N, 5.87°E
Report Text: EBLB 241225Z 08006KT 9999 FEW014 SCT019 07/02 Q1024 WHT
Loading
Personal Weather Stations






























Interactive Weather Map New forecast layout! Learn more

10-Day Weather Forecast

Advertisements
Track Severe Weather on mobile